Time;durP1;ratioP1;P1;durP2;ratioP2;P2;SDS_P1;SDS_P2;PMS_P1;PMS_P2;Temp;Humidity;BMP_temperature;BMP_pressure;BME280_temperature;BME280_humidity;BME280_pressure;Samples;Min_cycle;Max_cycle;Signal;HPM_P1;HPM_P2
2021/03/25 00:00:58;;;;;;;;;;;7.50;62.80;;;;;;4937307;29;19906;-69
2021/03/25 00:03:24;;;;;;;;;;;7.40;62.80;;;;;;4921925;29;20308;-68
2021/03/25 00:05:51;;;;;;;;;;;7.40;62.80;;;;;;4928245;29;19967;-67
2021/03/25 00:08:19;;;;;;;;;;;7.40;63.00;;;;;;4926305;29;19918;-68
2021/03/25 00:10:45;;;;;;;;;;;7.30;63.10;;;;;;4918190;29;19907;-68
2021/03/25 00:13:35;;;;;;;;;;;7.20;63.30;;;;;;4885386;29;19915;-68
2021/03/25 00:16:01;;;;;;;;;;;7.20;63.40;;;;;;4932832;29;19972;-69
2021/03/25 00:18:26;;;;;;;;;;;7.10;64.10;;;;;;4926729;29;20364;-67
2021/03/25 00:20:52;;;;;;;;;;;7.10;63.60;;;;;;4928242;29;19915;-69
2021/03/25 00:23:18;;;;;;;;;;;7.10;63.70;;;;;;4934693;29;19907;-68
2021/03/25 00:25:44;;;;;;;;;;;7.10;63.70;;;;;;4936125;29;19907;-69
2021/03/25 00:28:13;;;;;;;;;;;7.00;63.70;;;;;;4935707;29;19906;-68
2021/03/25 00:30:40;;;;;;;;;;;7.00;63.80;;;;;;4935472;29;19930;-69
2021/03/25 00:33:07;;;;;;;;;;;6.90;64.00;;;;;;4935135;29;19919;-68
2021/03/25 00:35:33;;;;;;;;;;;6.90;64.10;;;;;;4935871;29;20442;-69
2021/03/25 00:37:59;;;;;;;;;;;6.90;64.30;;;;;;4936896;29;19907;-68
2021/03/25 00:40:24;;;;;;;;;;;6.80;64.40;;;;;;4935568;29;19907;-68
2021/03/25 00:42:50;;;;;;;;;;;6.80;64.40;;;;;;4919723;29;20288;-69
2021/03/25 00:45:22;;;;;;;;;;;6.70;64.50;;;;;;4935862;29;20415;-66
2021/03/25 00:47:47;;;;;;;;;;;6.70;64.70;;;;;;4936531;29;20053;-68
2021/03/25 00:50:31;;;;;;;;;;;6.70;64.70;;;;;;4936336;29;20324;-69
2021/03/25 00:52:57;;;;;;;;;;;6.70;64.80;;;;;;4931471;29;19934;-69
2021/03/25 00:55:24;;;;;;;;;;;6.70;65.00;;;;;;4899540;29;20283;-68
2021/03/25 00:57:50;;;;;;;;;;;6.60;65.00;;;;;;4917218;29;20349;-69
2021/03/25 01:00:23;;;;;;;;;;;6.60;65.10;;;;;;4917120;29;20001;-68
2021/03/25 01:02:48;;;;;;;;;;;6.50;65.10;;;;;;4900359;29;20461;-69
2021/03/25 01:05:14;;;;;;;;;;;6.60;65.10;;;;;;4916801;29;20002;-68
2021/03/25 01:07:40;;;;;;;;;;;6.50;65.30;;;;;;4935151;29;20363;-69
2021/03/25 01:10:13;;;;;;;;;;;6.50;65.50;;;;;;4935225;29;20344;-69
2021/03/25 01:12:39;;;;;;;;;;;6.50;65.50;;;;;;4917141;29;19918;-69
2021/03/25 01:15:05;;;;;;;;;;;6.50;65.40;;;;;;4934548;29;19907;-68
2021/03/25 01:17:31;;;;;;;;;;;6.50;65.30;;;;;;4934214;29;19945;-69
2021/03/25 01:19:56;;;;;;;;;;;6.50;65.50;;;;;;4935807;29;19906;-68
2021/03/25 01:22:22;;;;;;;;;;;6.40;65.50;;;;;;4933764;29;20370;-68
2021/03/25 01:24:47;;;;;;;;;;;6.40;65.70;;;;;;4935941;29;19915;-70
2021/03/25 01:27:13;;;;;;;;;;;6.40;65.70;;;;;;4919009;29;19907;-67
2021/03/25 01:29:38;;;;;;;;;;;6.40;65.70;;;;;;4934644;29;19917;-68
2021/03/25 01:32:04;;;;;;;;;;;6.40;65.70;;;;;;4935466;29;19958;-69
2021/03/25 01:34:30;;;;;;;;;;;6.40;65.70;;;;;;4935000;29;19965;-70
2021/03/25 01:36:55;;;;;;;;;;;6.40;65.70;;;;;;4934934;29;20426;-69
2021/03/25 01:39:21;;;;;;;;;;;6.40;65.60;;;;;;4934220;29;19965;-69
2021/03/25 01:41:46;;;;;;;;;;;6.40;65.50;;;;;;4935389;29;19907;-71
2021/03/25 01:44:31;;;;;;;;;;;6.50;65.40;;;;;;4918058;29;19914;-69
2021/03/25 01:46:56;;;;;;;;;;;6.40;65.40;;;;;;4935486;29;19914;-69
2021/03/25 01:49:22;;;;;;;;;;;6.40;65.40;;;;;;4934423;29;19911;-69
2021/03/25 01:52:06;;;;;;;;;;;6.40;65.40;;;;;;4935393;29;19907;-70
2021/03/25 01:54:50;;;;;;;;;;;6.50;65.40;;;;;;4923046;29;19929;-68
2021/03/25 01:57:34;;;;;;;;;;;6.40;65.40;;;;;;4934879;29;19938;-69
2021/03/25 01:59:59;;;;;;;;;;;6.40;65.50;;;;;;4934707;29;19918;-68
2021/03/25 02:02:43;;;;;;;;;;;6.30;65.60;;;;;;4934592;29;19922;-69
2021/03/25 02:05:08;;;;;;;;;;;6.30;65.60;;;;;;4934616;29;19911;-68
2021/03/25 02:07:46;;;;;;;;;;;6.30;65.70;;;;;;4916504;29;19911;-69
2021/03/25 02:10:24;;;;;;;;;;;6.30;65.80;;;;;;4917527;29;20308;-68
2021/03/25 02:12:56;;;;;;;;;;;6.30;65.80;;;;;;4934874;29;19930;-69
2021/03/25 02:15:26;;;;;;;;;;;6.30;65.80;;;;;;4933887;29;19906;-68
2021/03/25 02:17:55;;;;;;;;;;;6.30;65.70;;;;;;4925925;29;19917;-68
2021/03/25 02:20:38;;;;;;;;;;;6.30;65.70;;;;;;4950153;29;19922;-69
2021/03/25 02:23:10;;;;;;;;;;;6.30;65.70;;;;;;4935048;29;19922;-69
2021/03/25 02:25:38;;;;;;;;;;;6.20;65.70;;;;;;4933668;29;19981;-69
2021/03/25 02:28:22;;;;;;;;;;;6.20;65.90;;;;;;4934411;29;19975;-69
2021/03/25 02:31:08;;;;;;;;;;;6.20;66.00;;;;;;4934355;29;19955;-68
2021/03/25 02:33:34;;;;;;;;;;;6.10;66.10;;;;;;4920512;29;20335;-68
2021/03/25 02:36:03;;;;;;;;;;;6.10;66.30;;;;;;4920260;29;19915;-69
2021/03/25 02:39:04;;;;;;;;;;;6.00;66.40;;;;;;4914769;29;19946;-69
2021/03/25 02:41:33;;;;;;;;;;;6.00;66.50;;;;;;4875072;29;19918;-69
2021/03/25 02:44:02;;;;;;;;;;;6.00;66.50;;;;;;4916855;29;20444;-69
2021/03/25 02:46:30;;;;;;;;;;;6.00;66.50;;;;;;4933688;29;19911;-68
2021/03/25 02:48:58;;;;;;;;;;;6.00;66.70;;;;;;4934502;29;19906;-68
2021/03/25 02:51:32;;;;;;;;;;;5.90;66.80;;;;;;4933271;29;20305;-68
2021/03/25 02:53:58;;;;;;;;;;;5.90;66.70;;;;;;4934396;29;20010;-68
2021/03/25 02:56:32;;;;;;;;;;;5.90;66.80;;;;;;4935935;29;20363;-68
2021/03/25 02:59:01;;;;;;;;;;;6.00;66.80;;;;;;4938348;29;19914;-68
2021/03/25 03:01:27;;;;;;;;;;;5.90;66.80;;;;;;4937270;29;19919;-68
2021/03/25 03:04:00;;;;;;;;;;;5.80;67.00;;;;;;4938069;29;19993;-69
2021/03/25 03:06:30;;;;;;;;;;;5.70;67.20;;;;;;4937391;29;19946;-67
2021/03/25 03:08:57;;;;;;;;;;;5.70;67.30;;;;;;4949673;29;19910;-69
2021/03/25 03:11:28;;;;;;;;;;;5.70;67.40;;;;;;4942922;29;19918;-69
2021/03/25 03:14:13;;;;;;;;;;;5.70;67.60;;;;;;4920809;29;19919;-70
2021/03/25 03:16:42;;;;;;;;;;;5.70;67.70;;;;;;4937224;29;20320;-68
2021/03/25 03:19:21;;;;;;;;;;;5.60;67.60;;;;;;4938150;29;19922;-69
2021/03/25 03:21:50;;;;;;;;;;;5.60;67.70;;;;;;4937672;29;19911;-70
2021/03/25 03:24:17;;;;;;;;;;;5.60;67.70;;;;;;4937853;29;20005;-68
2021/03/25 03:26:45;;;;;;;;;;;5.60;67.70;;;;;;4919739;29;19954;-68
2021/03/25 03:29:11;;;;;;;;;;;5.60;67.70;;;;;;4942656;29;19910;-70
2021/03/25 03:31:39;;;;;;;;;;;5.60;67.70;;;;;;4937204;29;20347;-69
2021/03/25 03:34:16;;;;;;;;;;;5.70;67.50;;;;;;4920902;29;20017;-69
2021/03/25 03:36:43;;;;;;;;;;;5.70;67.60;;;;;;4919494;29;20336;-68
2021/03/25 03:39:11;;;;;;;;;;;5.70;67.40;;;;;;4937213;29;20374;-69
2021/03/25 03:41:41;;;;;;;;;;;5.70;67.40;;;;;;4936415;29;19953;-69
2021/03/25 03:44:08;;;;;;;;;;;5.60;67.50;;;;;;4944298;29;19910;-69
2021/03/25 03:46:35;;;;;;;;;;;5.60;67.60;;;;;;4954975;29;19907;-69
2021/03/25 03:49:19;;;;;;;;;;;5.60;67.70;;;;;;4945778;29;19975;-69
2021/03/25 03:51:44;;;;;;;;;;;5.50;67.70;;;;;;4936097;29;20410;-68
2021/03/25 03:54:10;;;;;;;;;;;5.50;67.80;;;;;;4920249;29;19974;-68
2021/03/25 03:56:44;;;;;;;;;;;5.50;67.70;;;;;;4936311;29;19918;-69
2021/03/25 03:59:14;;;;;;;;;;;5.50;67.70;;;;;;4936963;29;19907;-69
2021/03/25 04:01:42;;;;;;;;;;;5.50;67.70;;;;;;4918281;29;19919;-68
2021/03/25 04:04:11;;;;;;;;;;;5.50;67.60;;;;;;4919976;29;20010;-68
2021/03/25 04:06:39;;;;;;;;;;;5.50;67.70;;;;;;4935055;29;19959;-69
2021/03/25 04:09:16;;;;;;;;;;;5.50;67.80;;;;;;4920099;29;19907;-68
2021/03/25 04:11:56;;;;;;;;;;;5.50;67.90;;;;;;4936070;29;20396;-68
2021/03/25 04:14:26;;;;;;;;;;;5.40;67.90;;;;;;4937281;29;19974;-69
2021/03/25 04:16:54;;;;;;;;;;;5.40;68.10;;;;;;4919816;29;19938;-68
2021/03/25 04:19:23;;;;;;;;;;;5.40;68.90;;;;;;4920581;29;19918;-69
2021/03/25 04:21:57;;;;;;;;;;;5.30;68.30;;;;;;4932479;29;20001;-69
2021/03/25 04:24:25;;;;;;;;;;;5.30;68.50;;;;;;4936600;29;20394;-69
2021/03/25 04:27:03;;;;;;;;;;;5.30;68.80;;;;;;4918857;29;19942;-69
2021/03/25 04:29:41;;;;;;;;;;;5.20;68.80;;;;;;4919540;29;19966;-68
2021/03/25 04:32:07;;;;;;;;;;;5.20;68.90;;;;;;4919697;29;19915;-69
2021/03/25 04:34:33;;;;;;;;;;;5.20;69.00;;;;;;4919380;29;20282;-68
2021/03/25 04:36:58;;;;;;;;;;;5.20;68.90;;;;;;4919912;29;19962;-68
2021/03/25 04:39:24;;;;;;;;;;;5.20;68.90;;;;;;4919423;29;19911;-69
2021/03/25 04:41:50;;;;;;;;;;;5.20;68.90;;;;;;4918412;29;20352;-68
2021/03/25 04:44:36;;;;;;;;;;;5.20;69.00;;;;;;4936254;29;19910;-68
2021/03/25 04:47:19;;;;;;;;;;;5.10;69.00;;;;;;4935895;29;19917;-69
2021/03/25 04:49:51;;;;;;;;;;;5.10;69.00;;;;;;4935795;29;20367;-69
2021/03/25 04:52:27;;;;;;;;;;;5.10;69.00;;;;;;4935896;29;19910;-69
2021/03/25 04:54:53;;;;;;;;;;;5.10;68.90;;;;;;4918243;29;20022;-69
2021/03/25 04:57:18;;;;;;;;;;;5.10;68.70;;;;;;4942250;29;19915;-69
2021/03/25 04:59:44;;;;;;;;;;;5.10;68.80;;;;;;4935201;29;20055;-69
2021/03/25 05:02:10;;;;;;;;;;;5.20;68.90;;;;;;4936261;29;20414;-69
2021/03/25 05:04:40;;;;;;;;;;;5.20;68.70;;;;;;4934531;29;19933;-68
2021/03/25 05:07:06;;;;;;;;;;;5.30;68.60;;;;;;4936100;29;19911;-69
2021/03/25 05:09:34;;;;;;;;;;;5.30;68.50;;;;;;4934709;29;19910;-68
2021/03/25 05:12:01;;;;;;;;;;;5.30;68.30;;;;;;4899107;29;20359;-68
2021/03/25 05:14:27;;;;;;;;;;;5.30;68.50;;;;;;4921892;29;19974;-69
2021/03/25 05:17:12;;;;;;;;;;;5.30;68.40;;;;;;4936606;29;20036;-69
2021/03/25 05:19:40;;;;;;;;;;;5.40;68.20;;;;;;4934397;29;19914;-68
2021/03/25 05:22:08;;;;;;;;;;;5.40;68.00;;;;;;4935629;29;19918;-68
2021/03/25 05:24:41;;;;;;;;;;;5.40;68.10;;;;;;4917897;29;19933;-68
2021/03/25 05:27:13;;;;;;;;;;;5.50;68.10;;;;;;4935359;29;19938;-68
2021/03/25 05:29:39;;;;;;;;;;;5.50;67.80;;;;;;4931051;29;19918;-69
2021/03/25 05:32:06;;;;;;;;;;;5.50;68.40;;;;;;4949437;29;20345;-69
2021/03/25 05:34:32;;;;;;;;;;;5.60;67.70;;;;;;4943102;29;19928;-69
2021/03/25 05:36:58;;;;;;;;;;;5.60;67.40;;;;;;4935448;29;20382;-69
2021/03/25 05:39:24;;;;;;;;;;;5.70;67.20;;;;;;4906235;29;19911;-70
2021/03/25 05:42:00;;;;;;;;;;;5.70;67.20;;;;;;4917376;29;19910;-68
2021/03/25 05:44:44;;;;;;;;;;;5.80;67.10;;;;;;4899741;29;19907;-68
2021/03/25 05:47:24;;;;;;;;;;;5.90;66.80;;;;;;4933835;29;20011;-69
2021/03/25 05:49:58;;;;;;;;;;;5.90;66.40;;;;;;4931592;29;19965;-70
2021/03/25 05:52:40;;;;;;;;;;;6.00;66.90;;;;;;4919262;29;19918;-68
2021/03/25 05:55:24;;;;;;;;;;;6.10;66.10;;;;;;4918043;29;20049;-69
2021/03/25 05:58:05;;;;;;;;;;;6.10;65.90;;;;;;4934187;29;19911;-70
2021/03/25 06:00:37;;;;;;;;;;;6.20;65.60;;;;;;4934851;29;20355;-69
2021/03/25 06:03:08;;;;;;;;;;;6.30;65.40;;;;;;4917869;29;19975;-70
2021/03/25 06:05:34;;;;;;;;;;;6.40;65.20;;;;;;4916672;29;19910;-70
2021/03/25 06:08:03;;;;;;;;;;;6.60;64.60;;;;;;4934863;29;19934;-69
2021/03/25 06:10:41;;;;;;;;;;;6.60;64.40;;;;;;4916125;29;19907;-71
2021/03/25 06:13:14;;;;;;;;;;;6.70;64.30;;;;;;4908003;29;19930;-71
2021/03/25 06:15:49;;;;;;;;;;;6.80;63.90;;;;;;4916675;29;19918;-70
2021/03/25 06:18:34;;;;;;;;;;;7.00;63.50;;;;;;4934405;29;19917;-69
2021/03/25 06:21:03;;;;;;;;;;;7.10;63.20;;;;;;4917393;29;19910;-69
2021/03/25 06:23:47;;;;;;;;;;;7.20;62.80;;;;;;4935010;29;19907;-70
2021/03/25 06:26:22;;;;;;;;;;;7.30;62.50;;;;;;4934074;29;19939;-69
2021/03/25 06:28:50;;;;;;;;;;;7.30;62.20;;;;;;4938726;29;19911;-69
2021/03/25 06:31:18;;;;;;;;;;;7.40;62.10;;;;;;4915820;29;19911;-72
2021/03/25 06:33:56;;;;;;;;;;;7.60;61.70;;;;;;4923534;29;20009;-69
2021/03/25 06:36:38;;;;;;;;;;;7.60;61.50;;;;;;4927506;29;20387;-69
2021/03/25 06:39:04;;;;;;;;;;;7.80;61.20;;;;;;4917097;29;19954;-69
2021/03/25 06:41:46;;;;;;;;;;;7.90;60.60;;;;;;4934359;29;20008;-70
2021/03/25 06:44:24;;;;;;;;;;;8.00;60.10;;;;;;4917675;29;19906;-70
2021/03/25 06:46:53;;;;;;;;;;;8.30;59.90;;;;;;4934050;29;19907;-70
2021/03/25 06:49:20;;;;;;;;;;;8.40;59.30;;;;;;4934553;29;19907;-71
2021/03/25 06:51:46;;;;;;;;;;;8.60;58.90;;;;;;4933955;29;19913;-70
2021/03/25 06:54:17;;;;;;;;;;;8.90;58.50;;;;;;4934635;29;20233;-71
2021/03/25 06:56:44;;;;;;;;;;;9.00;57.50;;;;;;4916885;29;19918;-70
2021/03/25 06:59:24;;;;;;;;;;;9.10;57.60;;;;;;4917076;29;20001;-70
2021/03/25 07:01:54;;;;;;;;;;;9.30;56.80;;;;;;4915991;29;20021;-70
2021/03/25 07:04:25;;;;;;;;;;;9.40;56.50;;;;;;4937569;29;20136;-70
2021/03/25 07:06:52;;;;;;;;;;;9.50;56.30;;;;;;4935772;29;20271;-70
2021/03/25 07:09:23;;;;;;;;;;;9.50;56.00;;;;;;4953440;29;19907;-68
2021/03/25 07:11:55;;;;;;;;;;;9.60;55.90;;;;;;4941398;29;19906;-69
2021/03/25 07:14:41;;;;;;;;;;;9.70;55.60;;;;;;4955687;29;19915;-68
2021/03/25 07:17:09;;;;;;;;;;;10.00;55.10;;;;;;4925921;29;19914;-70
2021/03/25 07:19:36;;;;;;;;;;;10.20;54.70;;;;;;4920835;29;19906;-69
2021/03/25 07:22:14;;;;;;;;;;;10.30;54.10;;;;;;4936129;29;19927;-70
2021/03/25 07:24:40;;;;;;;;;;;10.50;53.80;;;;;;4938219;29;19941;-69
2021/03/25 07:27:06;;;;;;;;;;;11.10;53.90;;;;;;4934193;29;19909;-68
2021/03/25 07:29:33;;;;;;;;;;;14.00;50.40;;;;;;4914169;29;20021;-69
2021/03/25 07:32:19;;;;;;;;;;;17.80;41.10;;;;;;4914952;29;20204;-69
2021/03/25 07:34:47;;;;;;;;;;;20.80;35.70;;;;;;4907845;29;19911;-68
2021/03/25 07:37:15;;;;;;;;;;;23.60;30.70;;;;;;4915198;29;19913;-70
2021/03/25 07:39:48;;;;;;;;;;;25.60;28.50;;;;;;4913354;29;19903;-69
2021/03/25 07:42:43;;;;;;;;;;;27.20;25.50;;;;;;4916307;29;19923;-70
2021/03/25 07:45:45;;;;;;;;;;;28.20;24.70;;;;;;4909554;29;19950;-69
2021/03/25 07:48:22;;;;;;;;;;;29.40;24.00;;;;;;4907050;29;19914;-70
2021/03/25 07:54:17;;;;;;;;;;;30.60;22.20;;;;;;4918857;29;20273;-69
2021/03/25 07:56:51;;;;;;;;;;;31.70;21.60;;;;;;4916487;29;19998;-72
2021/03/25 07:59:37;;;;;;;;;;;32.00;21.00;;;;;;4922950;29;19993;-71
2021/03/25 08:02:23;;;;;;;;;;;31.40;21.10;;;;;;4912547;29;19951;-70
2021/03/25 08:04:49;;;;;;;;;;;31.30;21.10;;;;;;4913794;29;20382;-72
2021/03/25 08:13:29;;;;;;;;;;;30.90;21.20;;;;;;4849485;29;20012;-69
2021/03/25 08:16:12;;;;;;;;;;;30.60;21.20;;;;;;4920563;29;19902;-70
2021/03/25 08:18:47;;;;;;;;;;;30.30;21.40;;;;;;4938153;29;19985;-69
2021/03/25 08:21:36;;;;;;;;;;;30.80;21.30;;;;;;4940199;29;19930;-70
2021/03/25 08:24:21;;;;;;;;;;;31.00;21.20;;;;;;4918230;29;19958;-68
2021/03/25 08:27:09;;;;;;;;;;;31.10;21.20;;;;;;4916627;29;19967;-68
2021/03/25 08:29:55;;;;;;;;;;;32.00;21.00;;;;;;4916480;29;19907;-69
2021/03/25 08:32:49;;;;;;;;;;;31.70;21.00;;;;;;4912256;29;20341;-70
2021/03/25 08:35:18;;;;;;;;;;;32.10;20.90;;;;;;4917923;29;19910;-69
2021/03/25 08:40:56;;;;;;;;;;;32.90;20.90;;;;;;4930775;29;19913;-70
2021/03/25 08:43:40;;;;;;;;;;;32.90;20.50;;;;;;4914467;29;20264;-70
2021/03/25 08:46:15;;;;;;;;;;;31.60;21.00;;;;;;4914482;29;20328;-69
2021/03/25 08:48:51;;;;;;;;;;;30.10;21.80;;;;;;4914107;29;19911;-69
2021/03/25 08:51:19;;;;;;;;;;;27.80;22.60;;;;;;4914344;29;19911;-69
2021/03/25 08:53:46;;;;;;;;;;;25.40;24.20;;;;;;4915312;29;19921;-68
2021/03/25 08:56:18;;;;;;;;;;;23.50;26.10;;;;;;4915023;29;20014;-70
2021/03/25 08:58:44;;;;;;;;;;;21.90;27.80;;;;;;4909808;29;19907;-67
2021/03/25 09:01:14;;;;;;;;;;;20.70;29.50;;;;;;4914767;29;20348;-66
2021/03/25 09:03:44;;;;;;;;;;;19.70;30.80;;;;;;4932670;29;20005;-68
2021/03/25 09:06:18;;;;;;;;;;;19.00;32.10;;;;;;4920104;29;19910;-68
2021/03/25 09:08:45;;;;;;;;;;;18.30;33.30;;;;;;4922461;29;19915;-67
2021/03/25 09:11:12;;;;;;;;;;;17.90;34.10;;;;;;4920692;29;19911;-66
2021/03/25 09:13:50;;;;;;;;;;;17.70;35.00;;;;;;4917516;29;19918;-65
2021/03/25 09:16:19;;;;;;;;;;;17.20;35.70;;;;;;4931565;29;19918;-68
2021/03/25 09:18:45;;;;;;;;;;;16.90;36.60;;;;;;4931498;29;19966;-67
2021/03/25 09:21:13;;;;;;;;;;;16.70;37.00;;;;;;4916544;29;20279;-68
2021/03/25 09:23:46;;;;;;;;;;;16.50;37.30;;;;;;4919452;29;19902;-69
2021/03/25 09:26:12;;;;;;;;;;;16.50;37.80;;;;;;4934223;29;19918;-68
2021/03/25 09:28:43;;;;;;;;;;;16.50;37.90;;;;;;4934167;29;19915;-67
2021/03/25 09:31:11;;;;;;;;;;;16.50;38.00;;;;;;4933598;29;19911;-67
2021/03/25 09:33:42;;;;;;;;;;;16.50;38.00;;;;;;4916155;29;20394;-66
2021/03/25 09:36:17;;;;;;;;;;;16.60;37.80;;;;;;4931349;29;19911;-67
2021/03/25 09:38:58;;;;;;;;;;;16.70;37.70;;;;;;4933000;29;19915;-70
2021/03/25 09:41:30;;;;;;;;;;;16.90;38.20;;;;;;4915933;29;19942;-68
2021/03/25 09:43:56;;;;;;;;;;;16.80;37.70;;;;;;4933002;29;19914;-69
2021/03/25 09:46:30;;;;;;;;;;;16.50;38.30;;;;;;4913063;29;19977;-69
2021/03/25 09:49:15;;;;;;;;;;;16.20;38.80;;;;;;4928023;29;19911;-67
2021/03/25 09:51:45;;;;;;;;;;;16.20;39.00;;;;;;4915521;29;19907;-67
2021/03/25 09:54:19;;;;;;;;;;;16.10;39.10;;;;;;4914914;29;19966;-68
2021/03/25 09:56:45;;;;;;;;;;;16.10;39.20;;;;;;4932885;29;19945;-69
2021/03/25 09:59:31;;;;;;;;;;;16.20;39.20;;;;;;4932420;29;19958;-68
2021/03/25 10:02:01;;;;;;;;;;;16.00;39.40;;;;;;4920128;29;19973;-69
2021/03/25 10:04:29;;;;;;;;;;;16.10;39.50;;;;;;4932750;29;19975;-66
2021/03/25 10:06:57;;;;;;;;;;;16.10;39.30;;;;;;4915758;29;19944;-67
2021/03/25 10:09:46;;;;;;;;;;;16.30;39.20;;;;;;4916206;29;19915;-67
2021/03/25 10:12:12;;;;;;;;;;;16.50;38.60;;;;;;4923990;29;19946;-67
2021/03/25 10:14:46;;;;;;;;;;;16.50;38.60;;;;;;4914019;29;19919;-68
2021/03/25 10:17:30;;;;;;;;;;;16.50;38.60;;;;;;4915252;29;19962;-68
2021/03/25 10:19:56;;;;;;;;;;;16.50;38.50;;;;;;4930526;29;19926;-68
2021/03/25 10:22:22;;;;;;;;;;;16.30;38.80;;;;;;4913757;29;19918;-67
2021/03/25 10:24:53;;;;;;;;;;;16.30;38.80;;;;;;4910204;29;20481;-66
2021/03/25 10:27:37;;;;;;;;;;;16.30;38.90;;;;;;4917356;29;19911;-68
2021/03/25 10:30:23;;;;;;;;;;;16.40;38.70;;;;;;4928593;29;20381;-67
2021/03/25 10:32:53;;;;;;;;;;;16.40;38.90;;;;;;4915370;29;19978;-68
2021/03/25 10:35:24;;;;;;;;;;;16.50;38.90;;;;;;4927019;29;19911;-68
2021/03/25 10:37:51;;;;;;;;;;;16.40;38.80;;;;;;4926739;29;19910;-70
2021/03/25 10:40:37;;;;;;;;;;;16.50;38.90;;;;;;4930426;29;19917;-68
2021/03/25 10:43:17;;;;;;;;;;;16.70;38.80;;;;;;4910706;29;19914;-68
2021/03/25 10:45:51;;;;;;;;;;;17.00;38.10;;;;;;4911028;29;19921;-67
2021/03/25 10:48:19;;;;;;;;;;;17.00;37.80;;;;;;4914497;29;19907;-67
2021/03/25 10:51:21;;;;;;;;;;;16.90;38.10;;;;;;4915209;29;19907;-67
2021/03/25 10:53:52;;;;;;;;;;;16.90;38.20;;;;;;4843501;29;19978;-68
2021/03/25 10:56:32;;;;;;;;;;;17.00;38.20;;;;;;4886825;29;19921;-70
2021/03/25 10:59:03;;;;;;;;;;;17.10;37.80;;;;;;4929895;29;19910;-65
2021/03/25 11:01:30;;;;;;;;;;;17.20;37.80;;;;;;4915006;29;19919;-66
2021/03/25 11:03:57;;;;;;;;;;;17.20;37.80;;;;;;4916672;29;19911;-70
2021/03/25 11:06:30;;;;;;;;;;;17.40;37.40;;;;;;4914590;29;19914;-66
2021/03/25 11:09:05;;;;;;;;;;;17.50;37.30;;;;;;4915404;29;19911;-67
2021/03/25 11:11:32;;;;;;;;;;;17.40;37.60;;;;;;4916264;29;20359;-67
2021/03/25 11:14:03;;;;;;;;;;;17.50;37.50;;;;;;4915656;29;19919;-69
2021/03/25 11:16:30;;;;;;;;;;;17.80;37.10;;;;;;4915687;29;19910;-67
2021/03/25 11:19:01;;;;;;;;;;;17.80;36.90;;;;;;4934758;29;19911;-66
2021/03/25 11:21:30;;;;;;;;;;;17.60;37.20;;;;;;4936556;29;20343;-67
2021/03/25 11:24:16;;;;;;;;;;;17.60;37.20;;;;;;4936598;29;19934;-67
2021/03/25 11:26:41;;;;;;;;;;;17.70;37.20;;;;;;4935495;29;20431;-68
2021/03/25 11:29:08;;;;;;;;;;;18.00;36.90;;;;;;4919256;29;20001;-67
2021/03/25 11:31:34;;;;;;;;;;;18.20;36.30;;;;;;4937538;29;19984;-67
2021/03/25 11:34:00;;;;;;;;;;;18.20;35.90;;;;;;4935736;29;19965;-68
2021/03/25 11:36:33;;;;;;;;;;;18.30;36.10;;;;;;4922822;29;19914;-68
2021/03/25 11:39:10;;;;;;;;;;;18.20;35.90;;;;;;4936428;29;19934;-69
2021/03/25 11:41:36;;;;;;;;;;;18.40;35.70;;;;;;4936691;29;20366;-68
2021/03/25 11:44:05;;;;;;;;;;;18.60;35.30;;;;;;4921382;29;20423;-70
2021/03/25 11:46:33;;;;;;;;;;;18.80;35.00;;;;;;4934883;29;19907;-68
2021/03/25 11:49:14;;;;;;;;;;;18.80;34.60;;;;;;4935112;29;19935;-70
2021/03/25 11:52:00;;;;;;;;;;;18.90;34.60;;;;;;4931751;29;19910;-67
2021/03/25 11:54:28;;;;;;;;;;;19.20;34.30;;;;;;4930751;29;19915;-68
2021/03/25 11:57:01;;;;;;;;;;;19.40;33.90;;;;;;4917091;29;19911;-70
2021/03/25 11:59:33;;;;;;;;;;;19.70;33.70;;;;;;4935452;29;19946;-68
2021/03/25 12:02:28;;;;;;;;;;;19.70;32.90;;;;;;4935537;29;19919;-68
2021/03/25 12:04:54;;;;;;;;;;;19.80;32.80;;;;;;4916286;29;20001;-69
2021/03/25 12:07:22;;;;;;;;;;;19.80;32.60;;;;;;4933714;29;19933;-67
2021/03/25 12:10:03;;;;;;;;;;;19.80;32.60;;;;;;4930305;29;19919;-68
2021/03/25 12:12:28;;;;;;;;;;;19.90;32.70;;;;;;4931489;29;19918;-68
2021/03/25 12:14:54;;;;;;;;;;;20.00;32.50;;;;;;4917081;29;19923;-68
2021/03/25 12:17:20;;;;;;;;;;;20.00;32.70;;;;;;4936029;29;20276;-67
2021/03/25 12:19:45;;;;;;;;;;;19.90;33.10;;;;;;4935854;29;19953;-67
2021/03/25 12:22:11;;;;;;;;;;;19.90;33.00;;;;;;4901831;29;20344;-66
2021/03/25 12:24:37;;;;;;;;;;;19.90;33.10;;;;;;4935311;29;19918;-68
2021/03/25 12:27:03;;;;;;;;;;;19.60;33.40;;;;;;4931050;29;19972;-68
2021/03/25 12:29:29;;;;;;;;;;;19.60;33.80;;;;;;4900833;29;19907;-68
2021/03/25 12:31:56;;;;;;;;;;;19.60;33.70;;;;;;4921221;29;19917;-68
2021/03/25 12:34:23;;;;;;;;;;;19.70;33.50;;;;;;4948500;29;20335;-67
2021/03/25 12:36:49;;;;;;;;;;;19.60;34.00;;;;;;4955449;29;19968;-68
2021/03/25 12:39:14;;;;;;;;;;;19.70;33.70;;;;;;4954442;29;20005;-67
2021/03/25 12:41:42;;;;;;;;;;;19.90;33.50;;;;;;4943015;29;19959;-69
2021/03/25 12:44:10;;;;;;;;;;;20.10;33.00;;;;;;4909803;29;19906;-69
2021/03/25 12:46:35;;;;;;;;;;;20.10;33.10;;;;;;4928385;29;19914;-69
2021/03/25 12:49:01;;;;;;;;;;;20.10;33.30;;;;;;4926354;29;19922;-68
2021/03/25 12:51:27;;;;;;;;;;;20.20;32.80;;;;;;4918321;29;20355;-69
2021/03/25 12:53:53;;;;;;;;;;;20.20;32.80;;;;;;4918766;29;20013;-68
2021/03/25 12:56:26;;;;;;;;;;;20.20;32.90;;;;;;4916673;29;19942;-67
2021/03/25 12:58:53;;;;;;;;;;;20.30;32.50;;;;;;4934693;29;19911;-69
2021/03/25 13:01:21;;;;;;;;;;;20.30;31.50;;;;;;4931097;29;19918;-69
2021/03/25 13:03:47;;;;;;;;;;;20.00;31.50;;;;;;4927880;29;20302;-68
2021/03/25 13:06:13;;;;;;;;;;;20.00;31.90;;;;;;4917025;29;19919;-68
2021/03/25 13:08:39;;;;;;;;;;;20.20;31.60;;;;;;4935236;29;19911;-69
2021/03/25 13:11:06;;;;;;;;;;;20.30;32.30;;;;;;4917219;29;19958;-68
2021/03/25 13:13:32;;;;;;;;;;;20.30;32.50;;;;;;4916049;29;19961;-68
2021/03/25 13:15:59;;;;;;;;;;;20.40;32.60;;;;;;4928924;29;19946;-68
2021/03/25 13:18:24;;;;;;;;;;;20.60;32.70;;;;;;4909537;29;19990;-74
2021/03/25 13:20:51;;;;;;;;;;;20.60;32.00;;;;;;4912948;29;19911;-73
2021/03/25 13:23:18;;;;;;;;;;;20.70;32.10;;;;;;4932259;29;19945;-73
2021/03/25 13:25:44;;;;;;;;;;;20.60;30.90;;;;;;4929603;29;19921;-71
2021/03/25 13:28:11;;;;;;;;;;;20.70;31.20;;;;;;4927556;29;20366;-71
2021/03/25 13:30:37;;;;;;;;;;;20.70;30.80;;;;;;4934509;29;19929;-72
2021/03/25 13:33:03;;;;;;;;;;;20.70;31.10;;;;;;4930135;29;20375;-73
2021/03/25 13:35:30;;;;;;;;;;;20.60;31.20;;;;;;4916349;29;19918;-74
2021/03/25 13:37:56;;;;;;;;;;;20.70;31.50;;;;;;4934088;29;19914;-72
2021/03/25 13:40:23;;;;;;;;;;;20.70;31.60;;;;;;4932609;29;20064;-72
2021/03/25 13:42:49;;;;;;;;;;;20.90;31.50;;;;;;4914357;29;19919;-72
2021/03/25 13:45:15;;;;;;;;;;;20.80;31.20;;;;;;4930237;29;19918;-72
2021/03/25 13:47:41;;;;;;;;;;;20.60;31.60;;;;;;4899138;29;19915;-73
2021/03/25 13:50:07;;;;;;;;;;;20.40;32.20;;;;;;4934855;29;20225;-74
2021/03/25 13:52:33;;;;;;;;;;;20.40;31.90;;;;;;4916749;29;19949;-72
2021/03/25 13:54:59;;;;;;;;;;;20.30;31.20;;;;;;4931146;29;20605;-70
2021/03/25 13:57:24;;;;;;;;;;;20.40;31.80;;;;;;4928449;29;19914;-74
2021/03/25 13:59:50;;;;;;;;;;;20.50;31.40;;;;;;4918232;29;19911;-72
2021/03/25 14:02:15;;;;;;;;;;;20.60;31.40;;;;;;4933771;29;19974;-76
2021/03/25 14:04:44;;;;;;;;;;;20.60;31.50;;;;;;4934704;29;20002;-74
2021/03/25 14:07:10;;;;;;;;;;;20.60;31.70;;;;;;4914465;29;19926;-75
2021/03/25 14:09:37;;;;;;;;;;;20.60;31.50;;;;;;4930159;29;19915;-72
2021/03/25 14:12:03;;;;;;;;;;;20.40;31.80;;;;;;4933854;29;20009;-73
2021/03/25 14:14:29;;;;;;;;;;;20.30;31.50;;;;;;4934036;29;19930;-74
2021/03/25 14:16:55;;;;;;;;;;;20.20;31.00;;;;;;4934170;29;19918;-74
2021/03/25 14:19:21;;;;;;;;;;;20.00;31.80;;;;;;4932841;29;20054;-74
2021/03/25 14:21:47;;;;;;;;;;;19.90;32.40;;;;;;4917280;29;20378;-73
2021/03/25 14:24:12;;;;;;;;;;;20.00;32.60;;;;;;4929170;29;19911;-73
2021/03/25 14:26:38;;;;;;;;;;;20.10;32.60;;;;;;4915805;29;19954;-72
2021/03/25 14:29:04;;;;;;;;;;;20.10;33.00;;;;;;4916067;29;20386;-72
2021/03/25 14:31:31;;;;;;;;;;;20.10;32.70;;;;;;4931314;29;20014;-75
2021/03/25 14:33:57;;;;;;;;;;;20.10;32.50;;;;;;4929787;29;19919;-74
2021/03/25 14:36:23;;;;;;;;;;;20.20;32.50;;;;;;4930308;29;20279;-72
2021/03/25 14:38:49;;;;;;;;;;;20.10;32.40;;;;;;4932578;29;19925;-77
2021/03/25 14:41:14;;;;;;;;;;;20.20;33.50;;;;;;4916802;29;19911;-77
2021/03/25 14:43:41;;;;;;;;;;;20.10;32.80;;;;;;4934997;29;19918;-77
2021/03/25 14:46:06;;;;;;;;;;;20.00;32.80;;;;;;4933957;29;19917;-77
2021/03/25 14:48:34;;;;;;;;;;;19.80;33.00;;;;;;4909243;29;20290;-77
2021/03/25 14:51:01;;;;;;;;;;;19.70;33.10;;;;;;4899276;29;19915;-76
2021/03/25 14:53:28;;;;;;;;;;;19.60;33.50;;;;;;4933710;29;19919;-76
2021/03/25 14:55:53;;;;;;;;;;;19.50;33.30;;;;;;4935223;29;19918;-76
2021/03/25 14:58:19;;;;;;;;;;;19.50;33.40;;;;;;4926651;29;20393;-77